sensor_id;sensor_type;location;lat;lon;timestamp;P1;durP1;ratioP1;P2;durP2;ratioP2
4821;SDS011;2425;47.794;13.068;2023-03-08T00:01:55;15.10;;;13.53;;
4821;SDS011;2425;47.794;13.068;2023-03-08T00:04:22;14.80;;;13.30;;
4821;SDS011;2425;47.794;13.068;2023-03-08T00:06:48;14.97;;;12.93;;
4821;SDS011;2425;47.794;13.068;2023-03-08T00:09:15;12.90;;;11.60;;
4821;SDS011;2425;47.794;13.068;2023-03-08T00:11:42;14.40;;;12.90;;
4821;SDS011;2425;47.794;13.068;2023-03-08T00:14:10;14.20;;;12.63;;
4821;SDS011;2425;47.794;13.068;2023-03-08T00:16:37;15.63;;;12.63;;
4821;SDS011;2425;47.794;13.068;2023-03-08T00:19:03;15.00;;;12.10;;
4821;SDS011;2425;47.794;13.068;2023-03-08T00:21:30;12.63;;;11.33;;
4821;SDS011;2425;47.794;13.068;2023-03-08T00:23:57;18.70;;;13.80;;
4821;SDS011;2425;47.794;13.068;2023-03-08T00:26:23;14.30;;;12.63;;
4821;SDS011;2425;47.794;13.068;2023-03-08T00:28:50;14.03;;;12.60;;
4821;SDS011;2425;47.794;13.068;2023-03-08T00:31:18;12.80;;;11.50;;
4821;SDS011;2425;47.794;13.068;2023-03-08T00:33:45;13.90;;;12.50;;
4821;SDS011;2425;47.794;13.068;2023-03-08T00:36:13;13.67;;;12.27;;
4821;SDS011;2425;47.794;13.068;2023-03-08T00:38:40;12.93;;;11.63;;
4821;SDS011;2425;47.794;13.068;2023-03-08T00:41:07;13.77;;;12.33;;
4821;SDS011;2425;47.794;13.068;2023-03-08T00:43:35;14.43;;;11.50;;
4821;SDS011;2425;47.794;13.068;2023-03-08T00:46:02;12.63;;;11.40;;
4821;SDS011;2425;47.794;13.068;2023-03-08T00:48:30;12.50;;;11.20;;
4821;SDS011;2425;47.794;13.068;2023-03-08T00:50:56;12.60;;;11.30;;
4821;SDS011;2425;47.794;13.068;2023-03-08T00:53:23;13.67;;;12.27;;
4821;SDS011;2425;47.794;13.068;2023-03-08T00:55:51;14.37;;;12.30;;
4821;SDS011;2425;47.794;13.068;2023-03-08T00:58:18;14.50;;;11.60;;
4821;SDS011;2425;47.794;13.068;2023-03-08T01:00:48;13.47;;;12.10;;
4821;SDS011;2425;47.794;13.068;2023-03-08T01:03:15;13.47;;;11.30;;
4821;SDS011;2425;47.794;13.068;2023-03-08T01:05:45;13.20;;;11.77;;
4821;SDS011;2425;47.794;13.068;2023-03-08T01:08:13;12.10;;;10.90;;
4821;SDS011;2425;47.794;13.068;2023-03-08T01:10:40;11.57;;;10.40;;
4821;SDS011;2425;47.794;13.068;2023-03-08T01:13:12;11.60;;;10.43;;
4821;SDS011;2425;47.794;13.068;2023-03-08T01:15:39;13.57;;;11.40;;
4821;SDS011;2425;47.794;13.068;2023-03-08T01:18:05;12.23;;;11.00;;
4821;SDS011;2425;47.794;13.068;2023-03-08T01:20:32;12.37;;;11.10;;
4821;SDS011;2425;47.794;13.068;2023-03-08T01:23:00;11.00;;;9.90;;
4821;SDS011;2425;47.794;13.068;2023-03-08T01:25:27;11.33;;;10.23;;
4821;SDS011;2425;47.794;13.068;2023-03-08T01:27:54;12.47;;;11.17;;
4821;SDS011;2425;47.794;13.068;2023-03-08T01:30:21;12.20;;;10.47;;
4821;SDS011;2425;47.794;13.068;2023-03-08T01:32:47;11.43;;;10.23;;
4821;SDS011;2425;47.794;13.068;2023-03-08T01:35:14;12.13;;;10.83;;
4821;SDS011;2425;47.794;13.068;2023-03-08T01:37:41;11.53;;;10.33;;
4821;SDS011;2425;47.794;13.068;2023-03-08T01:40:10;12.03;;;10.33;;
4821;SDS011;2425;47.794;13.068;2023-03-08T01:42:40;10.30;;;9.30;;
4821;SDS011;2425;47.794;13.068;2023-03-08T01:48:06;10.80;;;9.70;;
4821;SDS011;2425;47.794;13.068;2023-03-08T01:50:33;11.00;;;9.80;;
4821;SDS011;2425;47.794;13.068;2023-03-08T01:53:00;11.60;;;10.40;;
4821;SDS011;2425;47.794;13.068;2023-03-08T01:55:28;10.97;;;9.93;;
4821;SDS011;2425;47.794;13.068;2023-03-08T01:57:55;10.90;;;9.80;;
4821;SDS011;2425;47.794;13.068;2023-03-08T02:00:23;10.13;;;9.13;;
4821;SDS011;2425;47.794;13.068;2023-03-08T02:02:51;10.07;;;9.17;;
4821;SDS011;2425;47.794;13.068;2023-03-08T02:05:20;10.00;;;8.97;;
4821;SDS011;2425;47.794;13.068;2023-03-08T02:07:47;11.97;;;10.07;;
4821;SDS011;2425;47.794;13.068;2023-03-08T02:10:14;10.47;;;9.37;;
4821;SDS011;2425;47.794;13.068;2023-03-08T02:12:42;12.33;;;9.70;;
4821;SDS011;2425;47.794;13.068;2023-03-08T02:15:10;11.53;;;10.33;;
4821;SDS011;2425;47.794;13.068;2023-03-08T02:17:40;11.33;;;10.17;;
4821;SDS011;2425;47.794;13.068;2023-03-08T02:20:09;9.90;;;8.90;;
4821;SDS011;2425;47.794;13.068;2023-03-08T02:22:40;11.13;;;10.03;;
4821;SDS011;2425;47.794;13.068;2023-03-08T02:25:10;10.40;;;9.40;;
4821;SDS011;2425;47.794;13.068;2023-03-08T02:27:39;10.80;;;9.70;;
4821;SDS011;2425;47.794;13.068;2023-03-08T02:30:06;11.17;;;9.90;;
4821;SDS011;2425;47.794;13.068;2023-03-08T02:32:33;11.37;;;9.87;;
4821;SDS011;2425;47.794;13.068;2023-03-08T02:35:03;10.00;;;9.10;;
4821;SDS011;2425;47.794;13.068;2023-03-08T02:37:31;10.97;;;9.80;;
4821;SDS011;2425;47.794;13.068;2023-03-08T02:39:59;10.70;;;9.60;;
4821;SDS011;2425;47.794;13.068;2023-03-08T02:42:26;9.60;;;8.60;;
4821;SDS011;2425;47.794;13.068;2023-03-08T02:44:53;10.43;;;9.43;;
4821;SDS011;2425;47.794;13.068;2023-03-08T02:47:19;10.13;;;9.13;;
4821;SDS011;2425;47.794;13.068;2023-03-08T02:49:46;10.40;;;9.30;;
4821;SDS011;2425;47.794;13.068;2023-03-08T02:52:13;9.73;;;8.77;;
4821;SDS011;2425;47.794;13.068;2023-03-08T02:54:39;9.37;;;8.47;;
4821;SDS011;2425;47.794;13.068;2023-03-08T02:57:07;9.73;;;8.73;;
4821;SDS011;2425;47.794;13.068;2023-03-08T02:59:34;9.87;;;8.90;;
4821;SDS011;2425;47.794;13.068;2023-03-08T03:02:01;9.60;;;8.60;;
4821;SDS011;2425;47.794;13.068;2023-03-08T03:04:28;10.07;;;9.07;;
4821;SDS011;2425;47.794;13.068;2023-03-08T03:06:55;9.40;;;8.50;;
4821;SDS011;2425;47.794;13.068;2023-03-08T03:09:22;10.87;;;9.20;;
4821;SDS011;2425;47.794;13.068;2023-03-08T03:11:49;10.10;;;9.10;;
4821;SDS011;2425;47.794;13.068;2023-03-08T03:14:17;9.33;;;8.37;;
4821;SDS011;2425;47.794;13.068;2023-03-08T03:16:44;8.63;;;7.83;;
4821;SDS011;2425;47.794;13.068;2023-03-08T03:19:10;9.80;;;8.60;;
4821;SDS011;2425;47.794;13.068;2023-03-08T03:21:37;9.40;;;7.93;;
4821;SDS011;2425;47.794;13.068;2023-03-08T03:24:05;9.93;;;8.80;;
4821;SDS011;2425;47.794;13.068;2023-03-08T03:26:32;9.37;;;8.40;;
4821;SDS011;2425;47.794;13.068;2023-03-08T03:28:58;8.73;;;7.93;;
4821;SDS011;2425;47.794;13.068;2023-03-08T03:31:27;9.50;;;8.60;;
4821;SDS011;2425;47.794;13.068;2023-03-08T03:33:54;9.03;;;8.13;;
4821;SDS011;2425;47.794;13.068;2023-03-08T03:36:21;8.43;;;7.60;;
4821;SDS011;2425;47.794;13.068;2023-03-08T03:38:48;10.67;;;9.03;;
4821;SDS011;2425;47.794;13.068;2023-03-08T03:41:15;8.80;;;7.90;;
4821;SDS011;2425;47.794;13.068;2023-03-08T03:43:43;9.83;;;8.93;;
4821;SDS011;2425;47.794;13.068;2023-03-08T03:46:10;9.00;;;8.10;;
4821;SDS011;2425;47.794;13.068;2023-03-08T03:48:39;8.83;;;7.93;;
4821;SDS011;2425;47.794;13.068;2023-03-08T03:51:08;8.40;;;7.70;;
4821;SDS011;2425;47.794;13.068;2023-03-08T03:53:36;9.10;;;8.00;;
4821;SDS011;2425;47.794;13.068;2023-03-08T03:56:03;8.93;;;8.03;;
4821;SDS011;2425;47.794;13.068;2023-03-08T03:58:31;10.53;;;9.43;;
4821;SDS011;2425;47.794;13.068;2023-03-08T04:00:58;8.50;;;7.60;;
4821;SDS011;2425;47.794;13.068;2023-03-08T04:03:25;8.37;;;7.60;;
4821;SDS011;2425;47.794;13.068;2023-03-08T04:05:53;7.80;;;7.00;;
4821;SDS011;2425;47.794;13.068;2023-03-08T04:08:20;7.83;;;7.20;;
4821;SDS011;2425;47.794;13.068;2023-03-08T04:10:46;7.80;;;7.00;;
4821;SDS011;2425;47.794;13.068;2023-03-08T04:13:13;9.27;;;8.30;;
4821;SDS011;2425;47.794;13.068;2023-03-08T04:15:40;8.50;;;7.60;;
4821;SDS011;2425;47.794;13.068;2023-03-08T04:18:07;7.80;;;7.10;;
4821;SDS011;2425;47.794;13.068;2023-03-08T04:20:33;9.40;;;8.50;;
4821;SDS011;2425;47.794;13.068;2023-03-08T04:23:01;8.80;;;7.90;;
4821;SDS011;2425;47.794;13.068;2023-03-08T04:25:28;8.63;;;7.83;;
4821;SDS011;2425;47.794;13.068;2023-03-08T04:27:55;7.87;;;7.17;;
4821;SDS011;2425;47.794;13.068;2023-03-08T04:30:22;7.57;;;6.87;;
4821;SDS011;2425;47.794;13.068;2023-03-08T04:32:48;8.13;;;7.33;;
4821;SDS011;2425;47.794;13.068;2023-03-08T04:35:15;7.47;;;6.87;;
4821;SDS011;2425;47.794;13.068;2023-03-08T04:37:42;7.77;;;7.17;;
4821;SDS011;2425;47.794;13.068;2023-03-08T04:40:12;6.77;;;6.20;;
4821;SDS011;2425;47.794;13.068;2023-03-08T04:42:39;7.40;;;6.80;;
4821;SDS011;2425;47.794;13.068;2023-03-08T04:45:06;7.97;;;7.27;;
4821;SDS011;2425;47.794;13.068;2023-03-08T04:47:33;6.80;;;6.30;;
4821;SDS011;2425;47.794;13.068;2023-03-08T04:50:00;7.03;;;6.40;;
4821;SDS011;2425;47.794;13.068;2023-03-08T04:52:27;7.10;;;6.50;;
4821;SDS011;2425;47.794;13.068;2023-03-08T04:54:53;6.73;;;6.13;;
4821;SDS011;2425;47.794;13.068;2023-03-08T04:57:21;6.30;;;5.80;;
4821;SDS011;2425;47.794;13.068;2023-03-08T04:59:48;7.63;;;6.93;;
4821;SDS011;2425;47.794;13.068;2023-03-08T05:02:15;7.90;;;7.20;;
4821;SDS011;2425;47.794;13.068;2023-03-08T05:04:42;7.60;;;6.87;;
4821;SDS011;2425;47.794;13.068;2023-03-08T05:07:08;7.67;;;6.97;;
4821;SDS011;2425;47.794;13.068;2023-03-08T05:09:35;6.90;;;6.20;;
4821;SDS011;2425;47.794;13.068;2023-03-08T05:12:02;7.60;;;6.83;;
4821;SDS011;2425;47.794;13.068;2023-03-08T05:14:31;7.43;;;6.80;;
4821;SDS011;2425;47.794;13.068;2023-03-08T05:16:59;7.43;;;6.73;;
4821;SDS011;2425;47.794;13.068;2023-03-08T05:19:26;7.73;;;6.30;;
4821;SDS011;2425;47.794;13.068;2023-03-08T05:21:53;7.20;;;6.60;;
4821;SDS011;2425;47.794;13.068;2023-03-08T05:24:20;7.03;;;6.40;;
4821;SDS011;2425;47.794;13.068;2023-03-08T05:26:46;6.70;;;6.10;;
4821;SDS011;2425;47.794;13.068;2023-03-08T05:29:13;7.13;;;6.37;;
4821;SDS011;2425;47.794;13.068;2023-03-08T05:31:41;6.47;;;5.93;;
4821;SDS011;2425;47.794;13.068;2023-03-08T05:34:09;7.00;;;6.30;;
4821;SDS011;2425;47.794;13.068;2023-03-08T05:36:36;6.40;;;5.90;;
4821;SDS011;2425;47.794;13.068;2023-03-08T05:39:03;5.80;;;5.30;;
4821;SDS011;2425;47.794;13.068;2023-03-08T05:41:30;6.47;;;5.87;;
4821;SDS011;2425;47.794;13.068;2023-03-08T05:43:59;7.17;;;6.57;;
4821;SDS011;2425;47.794;13.068;2023-03-08T05:46:26;6.13;;;5.63;;
4821;SDS011;2425;47.794;13.068;2023-03-08T05:48:54;6.40;;;5.90;;
4821;SDS011;2425;47.794;13.068;2023-03-08T05:51:20;5.80;;;5.30;;
4821;SDS011;2425;47.794;13.068;2023-03-08T05:53:47;5.73;;;5.27;;
4821;SDS011;2425;47.794;13.068;2023-03-08T05:56:14;6.67;;;6.07;;
4821;SDS011;2425;47.794;13.068;2023-03-08T05:58:42;6.80;;;6.20;;
4821;SDS011;2425;47.794;13.068;2023-03-08T06:01:10;6.33;;;5.80;;
4821;SDS011;2425;47.794;13.068;2023-03-08T06:03:37;5.83;;;5.40;;
4821;SDS011;2425;47.794;13.068;2023-03-08T06:06:05;6.00;;;5.50;;
4821;SDS011;2425;47.794;13.068;2023-03-08T06:08:32;6.03;;;5.43;;
4821;SDS011;2425;47.794;13.068;2023-03-08T06:10:59;6.30;;;5.80;;
4821;SDS011;2425;47.794;13.068;2023-03-08T06:13:26;6.13;;;5.60;;
4821;SDS011;2425;47.794;13.068;2023-03-08T06:15:53;6.57;;;6.00;;
4821;SDS011;2425;47.794;13.068;2023-03-08T06:18:21;5.97;;;5.47;;
4821;SDS011;2425;47.794;13.068;2023-03-08T06:20:54;6.67;;;5.97;;
4821;SDS011;2425;47.794;13.068;2023-03-08T06:23:23;5.63;;;5.13;;
4821;SDS011;2425;47.794;13.068;2023-03-08T06:25:50;6.80;;;6.23;;
4821;SDS011;2425;47.794;13.068;2023-03-08T06:28:17;6.60;;;6.00;;
4821;SDS011;2425;47.794;13.068;2023-03-08T06:30:45;5.20;;;4.80;;
4821;SDS011;2425;47.794;13.068;2023-03-08T06:33:13;8.80;;;7.90;;
4821;SDS011;2425;47.794;13.068;2023-03-08T06:35:40;6.30;;;5.80;;
4821;SDS011;2425;47.794;13.068;2023-03-08T06:38:06;5.90;;;5.40;;
4821;SDS011;2425;47.794;13.068;2023-03-08T06:40:35;5.83;;;5.33;;
4821;SDS011;2425;47.794;13.068;2023-03-08T06:43:01;5.83;;;5.30;;
4821;SDS011;2425;47.794;13.068;2023-03-08T06:45:28;5.97;;;5.47;;
4821;SDS011;2425;47.794;13.068;2023-03-08T06:47:57;5.00;;;4.60;;
4821;SDS011;2425;47.794;13.068;2023-03-08T06:50:24;6.07;;;5.57;;
4821;SDS011;2425;47.794;13.068;2023-03-08T06:52:51;5.83;;;5.40;;
4821;SDS011;2425;47.794;13.068;2023-03-08T06:55:17;6.57;;;5.97;;
4821;SDS011;2425;47.794;13.068;2023-03-08T06:57:46;4.63;;;4.33;;
4821;SDS011;2425;47.794;13.068;2023-03-08T07:00:13;5.90;;;5.40;;
4821;SDS011;2425;47.794;13.068;2023-03-08T07:02:40;5.30;;;4.90;;
4821;SDS011;2425;47.794;13.068;2023-03-08T07:05:07;5.03;;;4.63;;
4821;SDS011;2425;47.794;13.068;2023-03-08T07:07:34;5.60;;;5.10;;
4821;SDS011;2425;47.794;13.068;2023-03-08T07:10:02;5.87;;;5.30;;
4821;SDS011;2425;47.794;13.068;2023-03-08T07:12:29;5.47;;;5.07;;
4821;SDS011;2425;47.794;13.068;2023-03-08T07:14:57;5.10;;;4.60;;
4821;SDS011;2425;47.794;13.068;2023-03-08T07:17:24;6.17;;;5.67;;
4821;SDS011;2425;47.794;13.068;2023-03-08T07:19:51;5.53;;;5.13;;
4821;SDS011;2425;47.794;13.068;2023-03-08T07:22:18;4.80;;;4.50;;
4821;SDS011;2425;47.794;13.068;2023-03-08T07:24:45;5.20;;;4.80;;
4821;SDS011;2425;47.794;13.068;2023-03-08T07:27:12;5.23;;;4.83;;
4821;SDS011;2425;47.794;13.068;2023-03-08T07:29:39;4.93;;;4.63;;
4821;SDS011;2425;47.794;13.068;2023-03-08T07:32:07;5.67;;;5.07;;
4821;SDS011;2425;47.794;13.068;2023-03-08T07:34:34;4.43;;;4.13;;
4821;SDS011;2425;47.794;13.068;2023-03-08T07:37:01;4.83;;;4.50;;
4821;SDS011;2425;47.794;13.068;2023-03-08T07:39:27;4.47;;;4.17;;
4821;SDS011;2425;47.794;13.068;2023-03-08T07:41:54;4.53;;;4.23;;
4821;SDS011;2425;47.794;13.068;2023-03-08T07:44:21;5.90;;;4.63;;
4821;SDS011;2425;47.794;13.068;2023-03-08T07:46:48;4.87;;;4.53;;
4821;SDS011;2425;47.794;13.068;2023-03-08T07:49:16;5.10;;;4.70;;
4821;SDS011;2425;47.794;13.068;2023-03-08T07:51:42;5.10;;;4.70;;
4821;SDS011;2425;47.794;13.068;2023-03-08T07:54:09;4.40;;;4.10;;
4821;SDS011;2425;47.794;13.068;2023-03-08T07:56:37;4.50;;;4.20;;
4821;SDS011;2425;47.794;13.068;2023-03-08T07:59:03;4.67;;;4.37;;
4821;SDS011;2425;47.794;13.068;2023-03-08T08:01:30;4.80;;;4.00;;
4821;SDS011;2425;47.794;13.068;2023-03-08T08:03:58;10.83;;;5.33;;
4821;SDS011;2425;47.794;13.068;2023-03-08T08:06:26;15.27;;;5.07;;
4821;SDS011;2425;47.794;13.068;2023-03-08T08:08:53;5.83;;;5.33;;
4821;SDS011;2425;47.794;13.068;2023-03-08T08:11:20;9.80;;;7.90;;
4821;SDS011;2425;47.794;13.068;2023-03-08T08:13:47;6.50;;;5.33;;
4821;SDS011;2425;47.794;13.068;2023-03-08T08:16:16;4.93;;;4.40;;
4821;SDS011;2425;47.794;13.068;2023-03-08T08:18:43;6.00;;;5.40;;
4821;SDS011;2425;47.794;13.068;2023-03-08T08:21:11;5.10;;;4.27;;
4821;SDS011;2425;47.794;13.068;2023-03-08T08:23:41;4.70;;;4.40;;
4821;SDS011;2425;47.794;13.068;2023-03-08T08:26:09;16.70;;;11.40;;
4821;SDS011;2425;47.794;13.068;2023-03-08T08:28:37;13.00;;;10.13;;
4821;SDS011;2425;47.794;13.068;2023-03-08T08:31:05;10.63;;;8.53;;
4821;SDS011;2425;47.794;13.068;2023-03-08T08:33:34;6.87;;;6.17;;
4821;SDS011;2425;47.794;13.068;2023-03-08T08:36:02;8.23;;;6.33;;
4821;SDS011;2425;47.794;13.068;2023-03-08T08:38:30;5.90;;;5.20;;
4821;SDS011;2425;47.794;13.068;2023-03-08T08:40:59;5.47;;;5.03;;
4821;SDS011;2425;47.794;13.068;2023-03-08T08:43:26;4.40;;;4.07;;
4821;SDS011;2425;47.794;13.068;2023-03-08T08:45:54;8.43;;;7.53;;
4821;SDS011;2425;47.794;13.068;2023-03-08T08:48:21;7.80;;;5.33;;
4821;SDS011;2425;47.794;13.068;2023-03-08T08:50:48;5.07;;;4.67;;
4821;SDS011;2425;47.794;13.068;2023-03-08T08:53:15;13.10;;;4.90;;
4821;SDS011;2425;47.794;13.068;2023-03-08T08:55:42;4.97;;;4.53;;
4821;SDS011;2425;47.794;13.068;2023-03-08T08:58:10;8.23;;;4.73;;
4821;SDS011;2425;47.794;13.068;2023-03-08T09:00:37;5.60;;;4.83;;
4821;SDS011;2425;47.794;13.068;2023-03-08T09:03:05;3.77;;;3.43;;
4821;SDS011;2425;47.794;13.068;2023-03-08T09:05:32;5.87;;;3.57;;
4821;SDS011;2425;47.794;13.068;2023-03-08T09:08:00;6.40;;;3.70;;
4821;SDS011;2425;47.794;13.068;2023-03-08T09:10:27;5.40;;;4.80;;
4821;SDS011;2425;47.794;13.068;2023-03-08T09:12:56;5.90;;;5.40;;
4821;SDS011;2425;47.794;13.068;2023-03-08T09:15:25;4.67;;;4.27;;
4821;SDS011;2425;47.794;13.068;2023-03-08T09:17:52;6.97;;;4.40;;
4821;SDS011;2425;47.794;13.068;2023-03-08T09:20:19;7.73;;;4.90;;
4821;SDS011;2425;47.794;13.068;2023-03-08T09:22:46;4.77;;;4.40;;
4821;SDS011;2425;47.794;13.068;2023-03-08T09:25:13;4.40;;;4.00;;
4821;SDS011;2425;47.794;13.068;2023-03-08T09:27:40;7.37;;;4.40;;
4821;SDS011;2425;47.794;13.068;2023-03-08T09:30:08;5.10;;;4.70;;
4821;SDS011;2425;47.794;13.068;2023-03-08T09:32:38;9.83;;;4.10;;
4821;SDS011;2425;47.794;13.068;2023-03-08T09:35:05;7.00;;;4.50;;
4821;SDS011;2425;47.794;13.068;2023-03-08T09:37:32;5.20;;;4.70;;
4821;SDS011;2425;47.794;13.068;2023-03-08T09:39:58;4.77;;;4.37;;
4821;SDS011;2425;47.794;13.068;2023-03-08T09:42:26;9.33;;;4.70;;
4821;SDS011;2425;47.794;13.068;2023-03-08T09:45:12;4.93;;;4.43;;
4821;SDS011;2425;47.794;13.068;2023-03-08T09:47:45;10.77;;;6.40;;
4821;SDS011;2425;47.794;13.068;2023-03-08T09:50:15;8.30;;;5.70;;
4821;SDS011;2425;47.794;13.068;2023-03-08T09:52:47;9.10;;;4.47;;
4821;SDS011;2425;47.794;13.068;2023-03-08T09:55:17;7.33;;;4.17;;
4821;SDS011;2425;47.794;13.068;2023-03-08T09:57:50;6.77;;;5.20;;
4821;SDS011;2425;47.794;13.068;2023-03-08T10:00:20;7.97;;;5.30;;
4821;SDS011;2425;47.794;13.068;2023-03-08T10:02:52;7.53;;;4.80;;
4821;SDS011;2425;47.794;13.068;2023-03-08T10:05:27;10.83;;;4.17;;
4821;SDS011;2425;47.794;13.068;2023-03-08T10:07:59;8.23;;;4.03;;
4821;SDS011;2425;47.794;13.068;2023-03-08T10:10:32;5.00;;;4.50;;
4821;SDS011;2425;47.794;13.068;2023-03-08T10:13:08;5.80;;;4.03;;
4821;SDS011;2425;47.794;13.068;2023-03-08T10:15:49;5.10;;;4.23;;
4821;SDS011;2425;47.794;13.068;2023-03-08T10:18:20;4.60;;;4.23;;
4821;SDS011;2425;47.794;13.068;2023-03-08T10:20:53;6.03;;;4.33;;
4821;SDS011;2425;47.794;13.068;2023-03-08T10:23:21;5.40;;;4.13;;
4821;SDS011;2425;47.794;13.068;2023-03-08T10:25:53;6.13;;;4.10;;
4821;SDS011;2425;47.794;13.068;2023-03-08T10:28:20;4.40;;;4.00;;
4821;SDS011;2425;47.794;13.068;2023-03-08T10:30:50;4.67;;;4.27;;
4821;SDS011;2425;47.794;13.068;2023-03-08T10:33:20;4.40;;;4.03;;
4821;SDS011;2425;47.794;13.068;2023-03-08T10:35:52;5.33;;;4.80;;
4821;SDS011;2425;47.794;13.068;2023-03-08T10:38:21;4.40;;;4.00;;
4821;SDS011;2425;47.794;13.068;2023-03-08T10:40:48;6.00;;;4.10;;
4821;SDS011;2425;47.794;13.068;2023-03-08T10:43:26;4.17;;;3.83;;
4821;SDS011;2425;47.794;13.068;2023-03-08T10:45:57;5.77;;;4.00;;
4821;SDS011;2425;47.794;13.068;2023-03-08T10:48:29;4.33;;;4.03;;
4821;SDS011;2425;47.794;13.068;2023-03-08T10:50:59;3.90;;;3.50;;
4821;SDS011;2425;47.794;13.068;2023-03-08T10:53:27;6.30;;;4.23;;
4821;SDS011;2425;47.794;13.068;2023-03-08T10:55:55;5.80;;;3.97;;
4821;SDS011;2425;47.794;13.068;2023-03-08T10:58:27;4.57;;;4.20;;
4821;SDS011;2425;47.794;13.068;2023-03-08T11:00:59;7.73;;;5.60;;
4821;SDS011;2425;47.794;13.068;2023-03-08T11:03:28;30.10;;;25.80;;
4821;SDS011;2425;47.794;13.068;2023-03-08T11:05:56;19.43;;;8.27;;
4821;SDS011;2425;47.794;13.068;2023-03-08T11:08:26;7.37;;;5.93;;
4821;SDS011;2425;47.794;13.068;2023-03-08T11:11:05;7.03;;;6.33;;
4821;SDS011;2425;47.794;13.068;2023-03-08T11:13:34;6.77;;;6.10;;
4821;SDS011;2425;47.794;13.068;2023-03-08T11:16:07;8.57;;;6.77;;
4821;SDS011;2425;47.794;13.068;2023-03-08T11:18:50;6.93;;;6.30;;
4821;SDS011;2425;47.794;13.068;2023-03-08T11:21:25;6.77;;;6.07;;
4821;SDS011;2425;47.794;13.068;2023-03-08T11:24:00;13.00;;;6.30;;
4821;SDS011;2425;47.794;13.068;2023-03-08T11:26:36;6.00;;;5.43;;
4821;SDS011;2425;47.794;13.068;2023-03-08T11:29:09;9.00;;;6.40;;
4821;SDS011;2425;47.794;13.068;2023-03-08T11:31:44;6.00;;;5.50;;
4821;SDS011;2425;47.794;13.068;2023-03-08T11:37:15;13.13;;;4.40;;
4821;SDS011;2425;47.794;13.068;2023-03-08T11:39:45;6.87;;;4.40;;
4821;SDS011;2425;47.794;13.068;2023-03-08T11:42:16;4.57;;;4.17;;
4821;SDS011;2425;47.794;13.068;2023-03-08T11:45:05;4.10;;;3.53;;
4821;SDS011;2425;47.794;13.068;2023-03-08T11:47:48;4.60;;;4.00;;
4821;SDS011;2425;47.794;13.068;2023-03-08T11:50:26;3.53;;;3.30;;
4821;SDS011;2425;47.794;13.068;2023-03-08T11:53:00;4.63;;;4.23;;
4821;SDS011;2425;47.794;13.068;2023-03-08T11:55:32;12.10;;;4.77;;
4821;SDS011;2425;47.794;13.068;2023-03-08T11:58:07;5.17;;;4.67;;
4821;SDS011;2425;47.794;13.068;2023-03-08T12:00:37;11.73;;;5.43;;
4821;SDS011;2425;47.794;13.068;2023-03-08T12:03:07;5.67;;;4.33;;
4821;SDS011;2425;47.794;13.068;2023-03-08T12:05:39;6.63;;;4.30;;
4821;SDS011;2425;47.794;13.068;2023-03-08T12:08:10;5.20;;;3.97;;
4821;SDS011;2425;47.794;13.068;2023-03-08T12:10:41;4.83;;;4.37;;
4821;SDS011;2425;47.794;13.068;2023-03-08T12:13:13;4.13;;;3.83;;
4821;SDS011;2425;47.794;13.068;2023-03-08T12:15:45;4.73;;;4.30;;
4821;SDS011;2425;47.794;13.068;2023-03-08T12:18:15;5.97;;;3.80;;
4821;SDS011;2425;47.794;13.068;2023-03-08T12:20:45;12.20;;;4.40;;
4821;SDS011;2425;47.794;13.068;2023-03-08T12:23:16;4.20;;;3.60;;
4821;SDS011;2425;47.794;13.068;2023-03-08T12:25:46;17.80;;;14.50;;
4821;SDS011;2425;47.794;13.068;2023-03-08T12:28:15;6.53;;;5.37;;
4821;SDS011;2425;47.794;13.068;2023-03-08T12:30:52;6.23;;;5.07;;
4821;SDS011;2425;47.794;13.068;2023-03-08T12:33:26;7.60;;;5.20;;
4821;SDS011;2425;47.794;13.068;2023-03-08T12:35:57;7.87;;;5.30;;
4821;SDS011;2425;47.794;13.068;2023-03-08T12:38:29;7.30;;;4.97;;
4821;SDS011;2425;47.794;13.068;2023-03-08T12:40:57;8.57;;;4.83;;
4821;SDS011;2425;47.794;13.068;2023-03-08T12:43:28;9.53;;;4.93;;
4821;SDS011;2425;47.794;13.068;2023-03-08T12:45:59;9.70;;;4.93;;
4821;SDS011;2425;47.794;13.068;2023-03-08T12:48:28;8.90;;;5.07;;
4821;SDS011;2425;47.794;13.068;2023-03-08T12:50:58;8.77;;;4.80;;
4821;SDS011;2425;47.794;13.068;2023-03-08T12:53:32;5.53;;;5.03;;
4821;SDS011;2425;47.794;13.068;2023-03-08T12:56:02;6.47;;;4.33;;
4821;SDS011;2425;47.794;13.068;2023-03-08T12:58:31;5.20;;;4.37;;
4821;SDS011;2425;47.794;13.068;2023-03-08T13:00:59;6.57;;;4.33;;
4821;SDS011;2425;47.794;13.068;2023-03-08T13:03:28;5.00;;;4.40;;
4821;SDS011;2425;47.794;13.068;2023-03-08T13:06:02;9.53;;;4.43;;
4821;SDS011;2425;47.794;13.068;2023-03-08T13:08:40;6.17;;;4.70;;
4821;SDS011;2425;47.794;13.068;2023-03-08T13:11:11;16.43;;;8.13;;
4821;SDS011;2425;47.794;13.068;2023-03-08T13:13:43;7.90;;;5.73;;
4821;SDS011;2425;47.794;13.068;2023-03-08T13:16:21;6.33;;;5.73;;
4821;SDS011;2425;47.794;13.068;2023-03-08T13:19:00;5.63;;;5.13;;
4821;SDS011;2425;47.794;13.068;2023-03-08T13:21:30;5.47;;;5.07;;
4821;SDS011;2425;47.794;13.068;2023-03-08T13:24:01;9.07;;;5.20;;
4821;SDS011;2425;47.794;13.068;2023-03-08T13:26:45;8.80;;;5.17;;
4821;SDS011;2425;47.794;13.068;2023-03-08T13:29:19;8.43;;;5.40;;
4821;SDS011;2425;47.794;13.068;2023-03-08T13:31:46;7.80;;;4.73;;
4821;SDS011;2425;47.794;13.068;2023-03-08T13:34:21;7.90;;;4.30;;
4821;SDS011;2425;47.794;13.068;2023-03-08T13:36:52;5.47;;;4.97;;
4821;SDS011;2425;47.794;13.068;2023-03-08T13:39:20;5.60;;;4.67;;
4821;SDS011;2425;47.794;13.068;2023-03-08T13:41:48;8.27;;;5.00;;
4821;SDS011;2425;47.794;13.068;2023-03-08T13:44:15;6.97;;;4.37;;
4821;SDS011;2425;47.794;13.068;2023-03-08T13:46:43;4.60;;;4.07;;
4821;SDS011;2425;47.794;13.068;2023-03-08T13:49:12;5.43;;;4.47;;
4821;SDS011;2425;47.794;13.068;2023-03-08T13:51:40;4.57;;;4.17;;
4821;SDS011;2425;47.794;13.068;2023-03-08T13:54:12;4.50;;;4.10;;
4821;SDS011;2425;47.794;13.068;2023-03-08T13:56:40;5.40;;;4.90;;
4821;SDS011;2425;47.794;13.068;2023-03-08T13:59:11;5.33;;;4.53;;
4821;SDS011;2425;47.794;13.068;2023-03-08T14:01:46;12.97;;;11.50;;
4821;SDS011;2425;47.794;13.068;2023-03-08T14:04:15;7.17;;;6.47;;
4821;SDS011;2425;47.794;13.068;2023-03-08T14:06:48;9.97;;;6.63;;
4821;SDS011;2425;47.794;13.068;2023-03-08T14:09:18;7.27;;;6.50;;
4821;SDS011;2425;47.794;13.068;2023-03-08T14:11:45;8.03;;;5.77;;
4821;SDS011;2425;47.794;13.068;2023-03-08T14:14:22;16.37;;;6.00;;
4821;SDS011;2425;47.794;13.068;2023-03-08T14:16:52;6.53;;;5.83;;
4821;SDS011;2425;47.794;13.068;2023-03-08T14:19:20;7.13;;;5.20;;
4821;SDS011;2425;47.794;13.068;2023-03-08T14:21:50;7.57;;;5.50;;
4821;SDS011;2425;47.794;13.068;2023-03-08T14:24:20;13.57;;;5.10;;
4821;SDS011;2425;47.794;13.068;2023-03-08T14:26:55;12.30;;;5.47;;
4821;SDS011;2425;47.794;13.068;2023-03-08T14:29:24;5.87;;;5.37;;
4821;SDS011;2425;47.794;13.068;2023-03-08T14:31:52;6.97;;;5.20;;
4821;SDS011;2425;47.794;13.068;2023-03-08T14:34:21;29.67;;;23.73;;
4821;SDS011;2425;47.794;13.068;2023-03-08T14:36:51;14.30;;;9.50;;
4821;SDS011;2425;47.794;13.068;2023-03-08T14:39:23;8.97;;;7.70;;
4821;SDS011;2425;47.794;13.068;2023-03-08T14:41:51;11.03;;;7.33;;
4821;SDS011;2425;47.794;13.068;2023-03-08T14:44:19;11.80;;;7.50;;
4821;SDS011;2425;47.794;13.068;2023-03-08T14:46:47;10.37;;;7.17;;
4821;SDS011;2425;47.794;13.068;2023-03-08T14:49:22;17.03;;;8.03;;
4821;SDS011;2425;47.794;13.068;2023-03-08T14:51:50;7.03;;;6.33;;
4821;SDS011;2425;47.794;13.068;2023-03-08T14:54:21;11.33;;;8.07;;
4821;SDS011;2425;47.794;13.068;2023-03-08T14:56:55;12.33;;;7.50;;
4821;SDS011;2425;47.794;13.068;2023-03-08T14:59:22;11.20;;;6.80;;
4821;SDS011;2425;47.794;13.068;2023-03-08T15:01:49;9.37;;;7.47;;
4821;SDS011;2425;47.794;13.068;2023-03-08T15:04:17;12.17;;;7.50;;
4821;SDS011;2425;47.794;13.068;2023-03-08T15:06:45;16.83;;;8.60;;
4821;SDS011;2425;47.794;13.068;2023-03-08T15:09:12;19.47;;;9.90;;
4821;SDS011;2425;47.794;13.068;2023-03-08T15:11:42;23.60;;;8.60;;